createdAt,value
2023-02-02T00:00:06.794Z,3.10
2023-02-02T00:00:19.761Z,3.20
2023-02-02T00:00:31.555Z,3.90
2023-02-02T00:00:44.548Z,4.40
2023-02-02T00:00:56.296Z,4.10
2023-02-02T00:01:09.515Z,4.00
2023-02-02T00:01:20.267Z,3.80
2023-02-02T00:01:32.043Z,4.10
2023-02-02T00:01:44.313Z,3.70
2023-02-02T00:01:57.270Z,3.60
2023-02-02T00:02:08.120Z,3.80
2023-02-02T00:02:18.878Z,3.80
2023-02-02T00:02:31.329Z,4.00
2023-02-02T00:02:43.823Z,3.50
2023-02-02T00:02:56.658Z,3.90
2023-02-02T00:03:08.408Z,3.60
2023-02-02T00:03:20.813Z,3.20
2023-02-02T00:03:32.630Z,3.80
2023-02-02T00:03:45.850Z,3.50
2023-02-02T00:03:56.759Z,3.70
2023-02-02T00:04:07.582Z,3.60
2023-02-02T00:04:20.048Z,3.30
2023-02-02T00:04:31.794Z,3.00
2023-02-02T00:04:45.515Z,2.90
2023-02-02T00:04:57.753Z,3.20
2023-02-02T00:05:10.974Z,3.40
2023-02-02T00:05:23.721Z,4.50
2023-02-02T00:05:37.155Z,4.20
2023-02-02T00:05:47.956Z,4.00
2023-02-02T00:05:58.725Z,4.70
2023-02-02T00:06:10.435Z,4.20
2023-02-02T00:06:23.654Z,4.10
2023-02-02T00:06:35.633Z,3.80
2023-02-02T00:06:48.867Z,3.90
2023-02-02T00:07:02.123Z,3.90
2023-02-02T00:07:12.939Z,3.60
2023-02-02T00:07:26.656Z,3.80
2023-02-02T00:07:39.121Z,3.60
2023-02-02T00:07:49.911Z,3.70
2023-02-02T00:08:01.696Z,3.80
2023-02-02T00:08:12.586Z,3.60
2023-02-02T00:08:25.109Z,3.70
2023-02-02T00:08:35.873Z,3.50
2023-02-02T00:08:46.664Z,3.30
2023-02-02T00:08:58.414Z,3.70
2023-02-02T00:09:10.896Z,4.00
2023-02-02T00:09:21.684Z,3.70
2023-02-02T00:09:32.448Z,3.50
2023-02-02T00:09:44.906Z,3.70
2023-02-02T00:09:55.687Z,3.80
2023-02-02T00:10:06.495Z,3.60
2023-02-02T00:10:19.705Z,3.30
2023-02-02T00:10:30.530Z,3.70
2023-02-02T00:10:42.477Z,4.30
2023-02-02T00:10:54.215Z,4.30
2023-02-02T00:11:06.934Z,4.40
2023-02-02T00:11:19.407Z,3.90
2023-02-02T00:11:31.626Z,3.50
2023-02-02T00:11:42.394Z,3.30
2023-02-02T00:11:53.168Z,3.60
2023-02-02T00:12:05.471Z,3.90
2023-02-02T00:12:16.236Z,3.60
2023-02-02T00:12:26.997Z,4.30
2023-02-02T00:12:40.596Z,4.10
2023-02-02T00:12:51.367Z,4.20
2023-02-02T00:13:02.387Z,3.90
2023-02-02T00:13:15.376Z,3.60
2023-02-02T00:13:27.128Z,4.00
2023-02-02T00:13:37.896Z,4.00
2023-02-02T00:13:50.156Z,3.80
2023-02-02T00:14:01.909Z,3.70
2023-02-02T00:14:12.668Z,3.60
2023-02-02T00:14:25.142Z,4.20
2023-02-02T00:14:35.934Z,4.00
2023-02-02T00:14:47.645Z,3.90
2023-02-02T00:14:59.390Z,3.80
2023-02-02T00:15:11.110Z,4.00
2023-02-02T00:15:23.817Z,3.80
2023-02-02T00:15:36.667Z,3.40
2023-02-02T00:15:49.947Z,2.90
2023-02-02T00:16:00.804Z,3.20
2023-02-02T00:16:13.238Z,3.80
2023-02-02T00:16:24.033Z,4.00
2023-02-02T00:16:34.831Z,3.90
2023-02-02T00:16:46.538Z,4.70
2023-02-02T00:16:59.693Z,4.40
2023-02-02T00:17:12.417Z,4.20
2023-02-02T00:17:24.706Z,3.90
2023-02-02T00:17:37.168Z,3.90
2023-02-02T00:17:47.928Z,3.80
2023-02-02T00:18:00.404Z,4.30
2023-02-02T00:18:11.186Z,4.30
2023-02-02T00:18:23.728Z,4.30
2023-02-02T00:18:35.977Z,5.20
2023-02-02T00:18:46.808Z,5.20
2023-02-02T00:18:59.161Z,4.40
2023-02-02T00:19:09.941Z,4.50
2023-02-02T00:19:20.718Z,4.10
2023-02-02T00:19:31.623Z,4.40
2023-02-02T00:19:43.390Z,3.70
2023-02-02T00:19:54.198Z,3.80
2023-02-02T00:20:04.967Z,3.50
2023-02-02T00:20:15.768Z,3.40
2023-02-02T00:20:27.527Z,3.20
2023-02-02T00:20:40.242Z,3.60
2023-02-02T00:20:53.490Z,4.00
2023-02-02T00:21:05.721Z,5.00
2023-02-02T00:21:17.948Z,5.40
2023-02-02T00:21:30.927Z,4.50
2023-02-02T00:21:42.682Z,4.10
2023-02-02T00:21:56.907Z,4.30
2023-02-02T00:22:09.388Z,4.30
2023-02-02T00:22:20.163Z,4.30
2023-02-02T00:22:30.888Z,4.10
2023-02-02T00:22:42.669Z,3.40
2023-02-02T00:22:55.120Z,4.30
2023-02-02T00:23:07.907Z,4.00
2023-02-02T00:23:20.351Z,3.30
2023-02-02T00:23:31.078Z,3.10
2023-02-02T00:23:41.870Z,3.40
2023-02-02T00:23:54.325Z,3.60
2023-02-02T00:24:07.299Z,3.90
2023-02-02T00:24:19.064Z,3.90
2023-02-02T00:24:31.501Z,3.70
2023-02-02T00:24:43.987Z,3.90
2023-02-02T00:24:55.736Z,3.80
2023-02-02T00:25:07.495Z,4.10
2023-02-02T00:25:20.398Z,4.00
2023-02-02T00:25:32.146Z,3.70
2023-02-02T00:25:45.360Z,3.50
2023-02-02T00:25:56.110Z,4.10
2023-02-02T00:26:08.566Z,4.50
2023-02-02T00:26:20.802Z,4.00
2023-02-02T00:26:32.623Z,3.90
2023-02-02T00:26:43.499Z,4.00
2023-02-02T00:26:55.785Z,4.80
2023-02-02T00:27:06.566Z,5.00
2023-02-02T00:27:17.331Z,4.80
2023-02-02T00:27:29.770Z,3.30
2023-02-02T00:27:40.574Z,3.10
2023-02-02T00:27:53.009Z,3.20
2023-02-02T00:28:04.768Z,3.60
2023-02-02T00:28:17.231Z,4.00
2023-02-02T00:28:28.979Z,3.40
2023-02-02T00:28:41.179Z,3.50
2023-02-02T00:28:53.650Z,3.90
2023-02-02T00:29:06.289Z,3.70
2023-02-02T00:29:18.735Z,4.40
2023-02-02T00:29:29.688Z,4.40
2023-02-02T00:29:40.507Z,4.20
2023-02-02T00:29:52.764Z,3.80
2023-02-02T00:30:03.541Z,3.70
2023-02-02T00:30:14.312Z,4.90
2023-02-02T00:30:25.062Z,5.00
2023-02-02T00:30:35.837Z,4.80
2023-02-02T00:30:48.344Z,3.30
2023-02-02T00:31:00.816Z,3.40
2023-02-02T00:31:11.611Z,3.30
2023-02-02T00:31:24.597Z,3.40
2023-02-02T00:31:35.396Z,4.20
2023-02-02T00:31:47.736Z,3.90
2023-02-02T00:31:59.501Z,3.50
2023-02-02T00:32:12.779Z,4.20
2023-02-02T00:32:23.522Z,3.70
2023-02-02T00:32:34.283Z,3.70
2023-02-02T00:32:45.081Z,3.80
2023-02-02T00:32:55.853Z,4.20
2023-02-02T00:33:06.676Z,4.20
2023-02-02T00:33:19.891Z,3.60
2023-02-02T00:33:30.712Z,3.80
2023-02-02T00:33:41.502Z,3.50
2023-02-02T00:33:55.259Z,3.80
2023-02-02T00:34:06.031Z,3.60
2023-02-02T00:34:19.781Z,3.30
2023-02-02T00:34:32.211Z,3.50
2023-02-02T00:34:45.981Z,3.30
2023-02-02T00:34:56.741Z,3.10
2023-02-02T00:35:08.452Z,3.20
2023-02-02T00:35:21.025Z,3.30
2023-02-02T00:35:31.862Z,2.90
2023-02-02T00:35:42.648Z,2.60
2023-02-02T00:35:54.373Z,2.60
2023-02-02T00:36:06.839Z,3.00
2023-02-02T00:36:19.570Z,3.20
2023-02-02T00:36:32.781Z,3.30
2023-02-02T00:36:45.235Z,3.30
2023-02-02T00:36:57.040Z,3.30
2023-02-02T00:37:07.791Z,3.00
2023-02-02T00:37:19.535Z,3.50
2023-02-02T00:37:31.289Z,3.80
2023-02-02T00:37:43.551Z,4.20
2023-02-02T00:37:56.012Z,3.80
2023-02-02T00:38:08.532Z,3.20
2023-02-02T00:38:21.011Z,3.10
2023-02-02T00:38:32.757Z,3.50
2023-02-02T00:38:45.232Z,3.80
2023-02-02T00:38:56.049Z,3.40
2023-02-02T00:39:07.791Z,3.30
2023-02-02T00:39:20.281Z,3.60
2023-02-02T00:39:32.760Z,4.20
2023-02-02T00:39:43.563Z,4.30
2023-02-02T00:39:56.144Z,3.80
2023-02-02T00:40:07.975Z,3.80
2023-02-02T00:40:20.440Z,4.20
2023-02-02T00:40:32.197Z,4.40
2023-02-02T00:40:44.423Z,3.80
2023-02-02T00:40:55.154Z,3.80
2023-02-02T00:41:06.874Z,3.70
2023-02-02T00:41:17.682Z,3.90
2023-02-02T00:41:29.450Z,4.10
2023-02-02T00:41:41.275Z,4.10
2023-02-02T00:41:53.486Z,3.80
2023-02-02T00:42:06.999Z,3.40
2023-02-02T00:42:20.211Z,3.30
2023-02-02T00:42:31.901Z,3.30
2023-02-02T00:42:42.685Z,3.20
2023-02-02T00:42:53.496Z,3.70
2023-02-02T00:43:05.263Z,3.90
2023-02-02T00:43:16.053Z,3.20
2023-02-02T00:43:28.561Z,3.30
2023-02-02T00:43:41.053Z,3.70
2023-02-02T00:43:54.040Z,3.40
2023-02-02T00:44:06.513Z,3.30
2023-02-02T00:44:19.047Z,3.80
2023-02-02T00:44:29.773Z,4.20
2023-02-02T00:44:41.518Z,4.70
2023-02-02T00:44:53.295Z,3.70
2023-02-02T00:45:05.013Z,3.70
2023-02-02T00:45:17.472Z,4.00
2023-02-02T00:45:30.434Z,4.60
2023-02-02T00:45:42.189Z,3.80
2023-02-02T00:45:54.684Z,3.80
2023-02-02T00:46:06.455Z,4.30
2023-02-02T00:46:17.252Z,4.10
2023-02-02T00:46:30.192Z,3.50
2023-02-02T00:46:42.444Z,3.70
2023-02-02T00:46:53.282Z,4.00
2023-02-02T00:47:05.025Z,4.00
2023-02-02T00:47:16.773Z,4.00
2023-02-02T00:47:27.580Z,3.70
2023-02-02T00:47:40.020Z,3.70
2023-02-02T00:47:50.814Z,3.40
2023-02-02T00:48:03.278Z,3.30
2023-02-02T00:48:15.993Z,3.10
2023-02-02T00:48:27.776Z,3.10
2023-02-02T00:48:39.499Z,4.40
2023-02-02T00:48:51.716Z,4.40
2023-02-02T00:49:03.484Z,4.40
2023-02-02T00:49:14.296Z,3.40
2023-02-02T00:49:26.040Z,3.90
2023-02-02T00:49:38.995Z,3.50
2023-02-02T00:49:51.508Z,3.70
2023-02-02T00:50:03.226Z,4.10
2023-02-02T00:50:14.936Z,4.00
2023-02-02T00:50:27.396Z,3.90
2023-02-02T00:50:39.254Z,3.10
2023-02-02T00:50:51.725Z,3.10
2023-02-02T00:51:02.560Z,3.10
2023-02-02T00:51:14.319Z,3.60
2023-02-02T00:51:26.017Z,3.90
2023-02-02T00:51:36.778Z,4.20
2023-02-02T00:51:47.545Z,5.00
2023-02-02T00:51:59.787Z,4.60
2023-02-02T00:52:11.516Z,3.80
2023-02-02T00:52:24.723Z,3.20
2023-02-02T00:52:37.234Z,3.40
2023-02-02T00:52:48.030Z,3.80
2023-02-02T00:52:59.810Z,3.00
2023-02-02T00:53:10.637Z,2.60
2023-02-02T00:53:21.507Z,2.60
2023-02-02T00:53:33.252Z,3.10
2023-02-02T00:53:45.486Z,3.10
2023-02-02T00:53:57.715Z,3.30
2023-02-02T00:54:10.159Z,4.10
2023-02-02T00:54:21.957Z,3.70
2023-02-02T00:54:33.706Z,2.80
2023-02-02T00:54:44.489Z,2.80
2023-02-02T00:54:56.296Z,2.70
2023-02-02T00:55:07.089Z,2.80
2023-02-02T00:55:19.505Z,2.90
2023-02-02T00:55:32.463Z,3.60
2023-02-02T00:55:44.733Z,4.20
2023-02-02T00:55:56.929Z,4.00
2023-02-02T00:56:08.695Z,3.30
2023-02-02T00:56:19.597Z,3.70
2023-02-02T00:56:30.437Z,3.70
2023-02-02T00:56:42.194Z,3.90
2023-02-02T00:56:54.398Z,4.00
2023-02-02T00:57:06.145Z,4.10
2023-02-02T00:57:18.375Z,3.30
2023-02-02T00:57:30.610Z,3.20
2023-02-02T00:57:43.056Z,3.10
2023-02-02T00:57:54.804Z,4.00
2023-02-02T00:58:06.563Z,4.30
2023-02-02T00:58:18.823Z,4.00
2023-02-02T00:58:30.822Z,3.80
2023-02-02T00:58:42.526Z,4.40
2023-02-02T00:58:53.330Z,4.60
2023-02-02T00:59:04.111Z,3.80
2023-02-02T00:59:15.885Z,3.30
2023-02-02T00:59:28.081Z,3.30
2023-02-02T00:59:39.824Z,3.00
2023-02-02T00:59:53.537Z,2.50
2023-02-02T01:00:06.095Z,2.80
2023-02-02T01:00:17.861Z,3.40
2023-02-02T01:00:30.176Z,3.50
2023-02-02T01:00:41.985Z,3.50
2023-02-02T01:00:52.931Z,3.60
2023-02-02T01:01:05.325Z,3.20
2023-02-02T01:01:18.273Z,3.40
2023-02-02T01:01:30.741Z,3.20
2023-02-02T01:01:43.250Z,3.50
2023-02-02T01:01:54.132Z,4.30
2023-02-02T01:02:05.014Z,3.80
2023-02-02T01:02:16.874Z,3.00
2023-02-02T01:02:28.734Z,3.90
2023-02-02T01:02:40.544Z,4.00
2023-02-02T01:02:53.006Z,3.50
2023-02-02T01:03:06.238Z,3.60
2023-02-02T01:03:18.710Z,3.70
2023-02-02T01:03:31.418Z,3.40
2023-02-02T01:03:43.244Z,4.40
2023-02-02T01:03:55.043Z,3.80
2023-02-02T01:04:06.831Z,3.20
2023-02-02T01:04:20.587Z,3.50
2023-02-02T01:04:32.357Z,3.90
2023-02-02T01:04:44.168Z,4.10
2023-02-02T01:04:56.478Z,3.50
2023-02-02T01:05:08.045Z,4.20
2023-02-02T01:05:18.905Z,4.40
2023-02-02T01:05:29.701Z,4.20
2023-02-02T01:05:41.456Z,4.30
2023-02-02T01:05:52.268Z,3.50
2023-02-02T01:06:04.089Z,3.30
2023-02-02T01:06:15.829Z,3.50
2023-02-02T01:06:27.590Z,3.20
2023-02-02T01:06:38.430Z,3.70
2023-02-02T01:06:50.716Z,4.20
2023-02-02T01:07:02.475Z,3.90
2023-02-02T01:07:13.370Z,3.70
2023-02-02T01:07:24.151Z,3.20
2023-02-02T01:07:34.898Z,2.50
2023-02-02T01:07:48.623Z,2.90
2023-02-02T01:07:59.421Z,3.40
2023-02-02T01:08:11.902Z,3.80
2023-02-02T01:08:23.650Z,4.30
2023-02-02T01:08:36.141Z,4.80
2023-02-02T01:08:47.907Z,4.30
2023-02-02T01:08:58.668Z,2.80
2023-02-02T01:09:10.427Z,2.70
2023-02-02T01:09:21.200Z,3.30
2023-02-02T01:09:31.983Z,3.40
2023-02-02T01:09:44.218Z,3.80
2023-02-02T01:09:55.020Z,3.70
2023-02-02T01:10:05.849Z,4.10
2023-02-02T01:10:18.829Z,4.00
2023-02-02T01:10:30.598Z,3.80
2023-02-02T01:10:41.400Z,3.40
2023-02-02T01:10:53.871Z,2.90
2023-02-02T01:11:04.648Z,2.60
2023-02-02T01:11:16.419Z,2.80
2023-02-02T01:11:27.202Z,3.40
2023-02-02T01:11:38.100Z,3.80
2023-02-02T01:11:49.809Z,3.60
2023-02-02T01:12:02.538Z,3.20
2023-02-02T01:12:14.301Z,3.40
2023-02-02T01:12:25.091Z,3.60
2023-02-02T01:12:36.845Z,3.60
2023-02-02T01:12:47.667Z,3.70
2023-02-02T01:12:59.489Z,3.70
2023-02-02T01:13:10.237Z,3.30
2023-02-02T01:13:21.077Z,2.80
2023-02-02T01:13:32.827Z,3.30
2023-02-02T01:13:43.577Z,3.60
2023-02-02T01:13:54.418Z,3.80
2023-02-02T01:14:05.228Z,3.50
2023-02-02T01:14:17.021Z,3.50
2023-02-02T01:14:27.834Z,3.70
2023-02-02T01:14:40.269Z,3.90
2023-02-02T01:14:51.099Z,4.10
2023-02-02T01:15:02.879Z,3.10
2023-02-02T01:15:13.809Z,3.00
2023-02-02T01:15:24.978Z,3.50
2023-02-02T01:15:37.590Z,3.90
2023-02-02T01:15:49.378Z,4.00
2023-02-02T01:16:00.180Z,3.50
2023-02-02T01:16:11.016Z,4.20
2023-02-02T01:16:21.788Z,4.50
2023-02-02T01:16:33.548Z,4.90
2023-02-02T01:16:44.399Z,4.10
2023-02-02T01:16:58.188Z,4.10
2023-02-02T01:17:08.959Z,3.60
2023-02-02T01:17:19.752Z,3.90
2023-02-02T01:17:31.538Z,3.60
2023-02-02T01:17:43.280Z,3.00
2023-02-02T01:17:55.278Z,3.20
2023-02-02T01:18:06.021Z,3.70
2023-02-02T01:18:16.811Z,4.00
2023-02-02T01:18:27.579Z,3.80
2023-02-02T01:18:38.389Z,3.80
2023-02-02T01:18:49.168Z,4.10
2023-02-02T01:19:02.166Z,4.20
2023-02-02T01:19:14.687Z,3.90
2023-02-02T01:19:25.465Z,3.90
2023-02-02T01:19:37.250Z,4.40
2023-02-02T01:19:49.003Z,4.00
2023-02-02T01:19:59.780Z,3.50
2023-02-02T01:20:11.739Z,3.90
2023-02-02T01:20:23.964Z,3.60
2023-02-02T01:20:34.722Z,3.30
2023-02-02T01:20:47.184Z,3.00
2023-02-02T01:21:00.395Z,3.60
2023-02-02T01:21:12.162Z,3.90
2023-02-02T01:21:22.953Z,3.90
2023-02-02T01:21:33.718Z,3.50
2023-02-02T01:21:44.482Z,3.90
2023-02-02T01:21:56.210Z,3.70
2023-02-02T01:22:07.030Z,3.80
2023-02-02T01:22:19.278Z,3.50
2023-02-02T01:22:30.023Z,3.50
2023-02-02T01:22:40.798Z,3.80
2023-02-02T01:22:51.560Z,3.60
2023-02-02T01:23:02.359Z,4.10
2023-02-02T01:23:13.120Z,3.80
2023-02-02T01:23:24.889Z,4.00
2023-02-02T01:23:35.680Z,3.60
2023-02-02T01:23:46.427Z,3.40
2023-02-02T01:23:58.667Z,3.40
2023-02-02T01:24:09.470Z,2.90
2023-02-02T01:24:21.700Z,3.20
2023-02-02T01:24:34.941Z,3.00
2023-02-02T01:24:47.162Z,3.30
2023-02-02T01:24:58.005Z,3.20
2023-02-02T01:25:08.745Z,2.80
2023-02-02T01:25:19.552Z,3.20
2023-02-02T01:25:31.801Z,3.30
2023-02-02T01:25:42.563Z,3.40
2023-02-02T01:25:54.817Z,3.10
2023-02-02T01:26:07.314Z,2.80
2023-02-02T01:26:18.151Z,2.80
2023-02-02T01:26:28.987Z,3.30
2023-02-02T01:26:39.727Z,3.40
2023-02-02T01:26:53.001Z,3.50
2023-02-02T01:27:05.523Z,3.30
2023-02-02T01:27:17.260Z,3.20
2023-02-02T01:27:28.028Z,3.10
2023-02-02T01:27:40.849Z,3.10
2023-02-02T01:27:54.094Z,3.20
2023-02-02T01:28:05.831Z,3.10
2023-02-02T01:28:16.652Z,3.10
2023-02-02T01:28:28.621Z,2.70
2023-02-02T01:28:40.153Z,2.60
2023-02-02T01:28:52.381Z,2.60
2023-02-02T01:29:04.178Z,2.90
2023-02-02T01:29:15.911Z,2.80
2023-02-02T01:29:26.726Z,3.00
2023-02-02T01:29:37.455Z,3.00
2023-02-02T01:29:49.712Z,2.80
2023-02-02T01:30:01.470Z,3.10
2023-02-02T01:30:12.243Z,3.40
2023-02-02T01:30:23.036Z,3.30
2023-02-02T01:30:35.475Z,3.10
2023-02-02T01:30:48.011Z,3.20
2023-02-02T01:30:59.784Z,3.60
2023-02-02T01:31:11.569Z,3.20
2023-02-02T01:31:23.840Z,3.40
2023-02-02T01:31:37.638Z,3.30
2023-02-02T01:31:48.423Z,3.20
2023-02-02T01:32:00.309Z,3.50
2023-02-02T01:32:11.123Z,3.50
2023-02-02T01:32:22.834Z,3.10
2023-02-02T01:32:33.633Z,2.50
2023-02-02T01:32:46.098Z,2.80
2023-02-02T01:32:59.310Z,2.70
2023-02-02T01:33:11.079Z,3.40
2023-02-02T01:33:22.823Z,3.30
2023-02-02T01:33:33.643Z,3.40
2023-02-02T01:33:46.871Z,2.80
2023-02-02T01:33:57.656Z,3.30
2023-02-02T01:34:08.412Z,3.70
2023-02-02T01:34:19.276Z,4.30
2023-02-02T01:34:30.036Z,3.50
2023-02-02T01:34:40.873Z,3.70
2023-02-02T01:34:51.693Z,3.50
2023-02-02T01:35:03.438Z,3.60
2023-02-02T01:35:15.221Z,3.30
2023-02-02T01:35:28.516Z,3.40
2023-02-02T01:35:39.315Z,3.60
2023-02-02T01:35:51.046Z,3.50
2023-02-02T01:36:01.853Z,3.40
2023-02-02T01:36:14.132Z,3.20
2023-02-02T01:36:24.972Z,3.50
2023-02-02T01:36:35.815Z,3.60
2023-02-02T01:36:48.563Z,3.50
2023-02-02T01:37:00.297Z,3.50
2023-02-02T01:37:13.521Z,3.90
2023-02-02T01:38:02.775Z,0.00
2023-02-02T01:38:14.509Z,3.10
2023-02-02T01:38:26.810Z,2.80
2023-02-02T01:38:38.608Z,3.00
2023-02-02T01:38:49.406Z,3.30
2023-02-02T01:39:00.248Z,3.30
2023-02-02T01:39:12.734Z,3.10
2023-02-02T01:39:25.209Z,3.40
2023-02-02T01:39:36.009Z,3.80
2023-02-02T01:39:47.602Z,4.40
2023-02-02T01:39:58.422Z,4.30
2023-02-02T01:40:10.176Z,4.30
2023-02-02T01:40:20.938Z,3.30
2023-02-02T01:40:33.418Z,3.50
2023-02-02T01:40:45.178Z,3.00
2023-02-02T01:40:55.971Z,3.20
2023-02-02T01:41:07.723Z,3.30
2023-02-02T01:41:18.537Z,3.10
2023-02-02T01:41:29.331Z,2.50
2023-02-02T01:41:43.052Z,3.10
2023-02-02T01:41:55.514Z,3.30
2023-02-02T01:42:07.958Z,3.50
2023-02-02T01:42:19.715Z,3.40
2023-02-02T01:42:30.517Z,3.20
2023-02-02T01:42:41.340Z,3.50
2023-02-02T01:42:53.814Z,3.70
2023-02-02T01:43:06.270Z,3.40
2023-02-02T01:43:17.970Z,4.10
2023-02-02T01:43:29.738Z,4.00
2023-02-02T01:43:40.516Z,3.60
2023-02-02T01:43:51.357Z,4.30
2023-02-02T01:44:03.788Z,4.80
2023-02-02T01:44:16.031Z,4.40
2023-02-02T01:44:26.768Z,3.50
2023-02-02T01:44:37.574Z,4.00
2023-02-02T01:44:48.307Z,4.50
2023-02-02T01:44:59.078Z,4.50
2023-02-02T01:45:11.287Z,4.00
2023-02-02T01:45:23.369Z,3.50
2023-02-02T01:45:36.771Z,3.20
2023-02-02T01:45:49.503Z,3.30
2023-02-02T01:46:01.986Z,3.10
2023-02-02T01:46:14.437Z,2.80
2023-02-02T01:46:25.208Z,2.80
2023-02-02T01:46:37.678Z,2.50
2023-02-02T01:46:51.971Z,2.40
2023-02-02T01:47:04.283Z,2.70
2023-02-02T01:47:16.468Z,3.40
2023-02-02T01:47:27.306Z,3.30
2023-02-02T01:47:39.559Z,3.20
2023-02-02T01:47:52.033Z,2.80
2023-02-02T01:48:05.267Z,3.00
2023-02-02T01:48:17.100Z,3.10
2023-02-02T01:48:27.893Z,3.40
2023-02-02T01:48:40.610Z,3.40
2023-02-02T01:48:51.410Z,3.30
2023-02-02T01:49:03.161Z,2.90
2023-02-02T01:49:13.959Z,3.00
2023-02-02T01:49:26.755Z,3.90
2023-02-02T01:49:38.490Z,4.10
2023-02-02T01:49:50.268Z,3.60
2023-02-02T01:50:02.728Z,3.70
2023-02-02T01:50:15.967Z,3.90
2023-02-02T01:50:28.189Z,3.90
2023-02-02T01:50:38.959Z,4.10
2023-02-02T01:50:50.690Z,4.30
2023-02-02T01:51:02.472Z,3.60
2023-02-02T01:51:13.261Z,3.10
2023-02-02T01:51:24.083Z,3.00
2023-02-02T01:51:36.548Z,3.10
2023-02-02T01:51:48.346Z,3.70
2023-02-02T01:52:01.601Z,3.80
2023-02-02T01:52:15.341Z,4.20
2023-02-02T01:52:27.339Z,4.10
2023-02-02T01:52:40.569Z,4.00
2023-02-02T01:52:54.203Z,3.20
2023-02-02T01:53:05.028Z,3.10
2023-02-02T01:53:17.969Z,3.00
2023-02-02T01:53:28.709Z,3.20
2023-02-02T01:53:39.510Z,3.20
2023-02-02T01:53:51.731Z,2.90
2023-02-02T01:54:02.469Z,3.00
2023-02-02T01:54:14.718Z,3.30
2023-02-02T01:54:26.500Z,3.50
2023-02-02T01:54:38.356Z,3.10
2023-02-02T01:54:49.162Z,3.90
2023-02-02T01:54:59.957Z,3.60
2023-02-02T01:55:10.722Z,4.30
2023-02-02T01:55:24.316Z,3.70
2023-02-02T01:55:35.249Z,3.80
2023-02-02T01:55:46.069Z,3.50
2023-02-02T01:55:56.861Z,3.40
2023-02-02T01:56:09.357Z,3.50
2023-02-02T01:56:20.264Z,3.60
2023-02-02T01:56:32.608Z,3.40
2023-02-02T01:56:43.370Z,2.70
2023-02-02T01:56:55.594Z,3.10
2023-02-02T01:57:08.047Z,3.30
2023-02-02T01:57:18.870Z,3.70
2023-02-02T01:57:29.638Z,3.60
2023-02-02T01:57:42.160Z,3.10
2023-02-02T01:57:54.395Z,2.90
2023-02-02T01:58:06.831Z,3.00
2023-02-02T01:58:18.579Z,3.00
2023-02-02T01:58:31.020Z,2.80
2023-02-02T01:58:41.793Z,3.20
2023-02-02T01:58:53.530Z,3.20
2023-02-02T01:59:04.262Z,3.50
2023-02-02T01:59:15.061Z,2.80
2023-02-02T01:59:27.076Z,3.00
2023-02-02T01:59:37.870Z,2.90
2023-02-02T01:59:48.665Z,3.40
2023-02-02T01:59:59.471Z,4.10
2023-02-02T02:00:10.233Z,4.50
2023-02-02T02:00:20.990Z,4.40
2023-02-02T02:00:34.133Z,4.00
2023-02-02T02:00:46.952Z,3.70
2023-02-02T02:00:57.900Z,3.00
2023-02-02T02:01:08.734Z,3.40
2023-02-02T02:01:20.530Z,3.00
2023-02-02T02:01:32.307Z,2.70
2023-02-02T02:01:43.101Z,2.70
2023-02-02T02:01:54.888Z,3.00
2023-02-02T02:02:06.881Z,2.90
2023-02-02T02:02:19.476Z,2.80
2023-02-02T02:02:30.349Z,3.90
2023-02-02T02:02:42.844Z,3.70
2023-02-02T02:02:53.622Z,3.50
2023-02-02T02:03:04.398Z,3.00
2023-02-02T02:03:16.131Z,3.10
2023-02-02T02:03:27.900Z,3.00
2023-02-02T02:03:40.186Z,3.30
2023-02-02T02:03:50.975Z,3.70
2023-02-02T02:04:01.793Z,3.90
2023-02-02T02:04:12.642Z,3.10
2023-02-02T02:04:23.461Z,2.60
2023-02-02T02:04:35.683Z,3.50
2023-02-02T02:04:47.922Z,3.80
2023-02-02T02:04:59.751Z,4.50
2023-02-02T02:05:10.520Z,3.70
2023-02-02T02:05:21.462Z,3.90
2023-02-02T02:05:33.205Z,2.90
2023-02-02T02:05:44.977Z,3.60
2023-02-02T02:05:58.459Z,4.30
2023-02-02T02:06:09.373Z,3.80
2023-02-02T02:06:21.984Z,3.20
2023-02-02T02:06:32.797Z,2.90
2023-02-02T02:06:43.611Z,2.80
2023-02-02T02:06:55.628Z,3.10
2023-02-02T02:07:08.591Z,3.00
2023-02-02T02:07:20.339Z,3.20
2023-02-02T02:07:33.333Z,3.10
2023-02-02T02:07:46.581Z,2.80
2023-02-02T02:07:59.832Z,2.90
2023-02-02T02:08:11.838Z,3.00
2023-02-02T02:08:24.101Z,3.00
2023-02-02T02:08:37.895Z,3.70
2023-02-02T02:08:48.678Z,3.40
2023-02-02T02:08:59.481Z,3.10
2023-02-02T02:09:11.273Z,3.00
2023-02-02T02:09:24.236Z,3.60
2023-02-02T02:09:35.033Z,3.30
2023-02-02T02:09:48.302Z,3.50
2023-02-02T02:10:00.620Z,3.20
2023-02-02T02:10:14.327Z,3.40
2023-02-02T02:10:27.345Z,3.10
2023-02-02T02:10:41.492Z,2.80
2023-02-02T02:10:52.329Z,2.60
2023-02-02T02:11:03.083Z,2.70
2023-02-02T02:11:16.301Z,3.70
2023-02-02T02:11:27.106Z,4.00
2023-02-02T02:11:37.890Z,3.20
2023-02-02T02:11:51.122Z,2.90
2023-02-02T02:12:02.874Z,2.90
2023-02-02T02:12:16.606Z,3.00
2023-02-02T02:12:28.332Z,3.50
2023-02-02T02:12:39.113Z,3.90
2023-02-02T02:12:49.866Z,3.60
2023-02-02T02:13:02.096Z,3.40
2023-02-02T02:13:14.074Z,3.70
2023-02-02T02:13:26.304Z,3.70
2023-02-02T02:13:37.073Z,3.70
2023-02-02T02:13:47.881Z,3.80
2023-02-02T02:13:59.624Z,3.50
2023-02-02T02:14:11.426Z,3.40
2023-02-02T02:14:22.203Z,2.90
2023-02-02T02:14:33.943Z,2.90
2023-02-02T02:14:46.677Z,2.80
2023-02-02T02:14:59.215Z,3.20
2023-02-02T02:15:11.193Z,3.10
2023-02-02T02:15:24.182Z,3.20
2023-02-02T02:15:36.126Z,4.10
2023-02-02T02:15:48.616Z,3.70
2023-02-02T02:16:00.305Z,2.90
2023-02-02T02:16:12.107Z,3.10
2023-02-02T02:16:22.866Z,3.30
2023-02-02T02:16:34.893Z,3.10
2023-02-02T02:16:45.737Z,2.90
2023-02-02T02:16:58.252Z,3.00
2023-02-02T02:17:10.705Z,3.40
2023-02-02T02:17:23.224Z,3.40
2023-02-02T02:17:35.023Z,2.80
2023-02-02T02:17:48.244Z,2.80
2023-02-02T02:17:59.999Z,3.20
2023-02-02T02:18:11.763Z,3.40
2023-02-02T02:18:22.564Z,3.50
2023-02-02T02:18:35.538Z,3.50
2023-02-02T02:18:47.644Z,3.50
2023-02-02T02:19:00.143Z,3.00
2023-02-02T02:19:12.635Z,2.90
2023-02-02T02:19:24.424Z,3.30
2023-02-02T02:19:36.186Z,4.00
2023-02-02T02:19:48.079Z,4.20
2023-02-02T02:19:58.804Z,4.50
2023-02-02T02:20:09.542Z,3.80
2023-02-02T02:20:21.276Z,3.70
2023-02-02T02:20:33.496Z,3.90
2023-02-02T02:20:45.964Z,3.70
2023-02-02T02:20:57.737Z,4.00
2023-02-02T02:21:08.542Z,3.70
2023-02-02T02:21:20.277Z,3.60
2023-02-02T02:21:31.063Z,3.70
2023-02-02T02:21:41.844Z,3.40
2023-02-02T02:21:52.656Z,2.90
2023-02-02T02:22:04.460Z,3.10
2023-02-02T02:22:15.235Z,2.80
2023-02-02T02:22:27.035Z,2.90
2023-02-02T02:22:38.807Z,2.90
2023-02-02T02:22:49.609Z,3.00
2023-02-02T02:23:01.345Z,2.90
2023-02-02T02:23:13.808Z,2.90
2023-02-02T02:23:26.031Z,3.30
2023-02-02T02:23:38.512Z,2.90
2023-02-02T02:23:49.287Z,3.20
2023-02-02T02:24:00.070Z,3.30
2023-02-02T02:24:10.803Z,3.30
2023-02-02T02:24:23.275Z,3.70
2023-02-02T02:24:36.495Z,3.80
2023-02-02T02:24:48.242Z,3.30
2023-02-02T02:24:59.045Z,3.10
2023-02-02T02:25:09.837Z,3.20
2023-02-02T02:25:20.606Z,3.00
2023-02-02T02:25:31.424Z,3.50
2023-02-02T02:25:43.894Z,3.30
2023-02-02T02:25:56.336Z,3.40
2023-02-02T02:26:07.127Z,3.10
2023-02-02T02:26:17.922Z,2.90
2023-02-02T02:26:28.726Z,3.20
2023-02-02T02:26:39.563Z,2.80
2023-02-02T02:26:50.439Z,3.60
2023-02-02T02:27:02.646Z,4.10
2023-02-02T02:27:13.419Z,4.00
2023-02-02T02:27:25.155Z,3.80
2023-02-02T02:27:38.174Z,2.50
2023-02-02T02:27:51.565Z,2.70
2023-02-02T02:28:03.781Z,3.00
2023-02-02T02:28:14.565Z,2.90
2023-02-02T02:28:26.286Z,2.80
2023-02-02T02:28:38.766Z,3.40
2023-02-02T02:28:49.589Z,4.20
2023-02-02T02:29:01.351Z,4.10
2023-02-02T02:29:13.334Z,3.50
2023-02-02T02:29:26.131Z,3.40
2023-02-02T02:29:37.826Z,2.60
2023-02-02T02:29:48.626Z,2.40
2023-02-02T02:30:01.655Z,2.50
2023-02-02T02:30:12.402Z,3.00
2023-02-02T02:30:23.187Z,3.40
2023-02-02T02:30:35.808Z,3.50
2023-02-02T02:30:46.726Z,3.50
2023-02-02T02:31:00.023Z,3.30
2023-02-02T02:31:12.693Z,2.90
2023-02-02T02:31:25.014Z,2.80
2023-02-02T02:31:36.927Z,2.80
2023-02-02T02:31:48.861Z,2.80
2023-02-02T02:32:00.669Z,2.90
2023-02-02T02:32:11.466Z,3.50
2023-02-02T02:32:23.948Z,3.30
2023-02-02T02:32:36.467Z,3.30
2023-02-02T02:32:48.197Z,3.00
2023-02-02T02:32:59.989Z,2.60
2023-02-02T02:33:11.781Z,2.80
2023-02-02T02:33:22.511Z,3.30
2023-02-02T02:33:34.266Z,3.40
2023-02-02T02:33:46.806Z,3.30
2023-02-02T02:33:59.755Z,2.80
2023-02-02T02:34:12.007Z,3.60
2023-02-02T02:34:23.754Z,3.90
2023-02-02T02:34:36.237Z,3.50
2023-02-02T02:34:48.749Z,3.20
2023-02-02T02:35:00.982Z,2.90
2023-02-02T02:35:12.717Z,3.40
2023-02-02T02:35:23.807Z,3.60
2023-02-02T02:35:37.696Z,3.40
2023-02-02T02:35:49.929Z,3.20
2023-02-02T02:36:00.768Z,3.40
2023-02-02T02:36:12.502Z,3.50
2023-02-02T02:36:24.981Z,3.40
2023-02-02T02:36:37.707Z,4.00
2023-02-02T02:36:49.947Z,4.00
2023-02-02T02:37:02.676Z,3.50
2023-02-02T02:37:14.416Z,3.50
2023-02-02T02:37:26.901Z,3.50